Time,TemperatureF,DewpointF,PressureIn,WindDirection,WindDirectionDegrees,WindSpeedMPH,WindSpeedGustMPH,Humidity,HourlyPrecipIn,Conditions,Clouds,dailyrainin,SoftwareType,DateUTC
2013-06-10 00:00:00,69.6,63.0,29.99,SSE,165,4.8,4.8,78,0.00,,,0.00,TxWx,2013-06-10 05:00:00,
2013-06-10 00:05:00,69.5,63.0,29.99,SSE,167,1.8,1.8,79,0.00,,,0.00,TxWx,2013-06-10 05:05:00,
2013-06-10 00:11:00,69.4,62.0,29.99,SSE,165,2.1,2.1,79,0.00,,,0.00,TxWx,2013-06-10 05:11:00,
2013-06-10 00:16:00,69.3,62.0,29.99,SSE,165,2.1,2.1,80,0.00,,,0.00,TxWx,2013-06-10 05:16:00,
2013-06-10 00:22:00,69.2,63.0,29.99,SSE,164,4.5,4.8,81,0.00,,,0.00,TxWx,2013-06-10 05:22:00,
2013-06-10 00:27:00,69.1,63.0,29.99,South,177,3.3,3.9,82,0.00,,,0.00,TxWx,2013-06-10 05:27:00,
2013-06-10 00:32:00,68.8,63.0,29.99,SSE,166,1.8,2.4,82,0.00,,,0.02,TxWx,2013-06-10 05:32:00,
2013-06-10 00:37:00,67.9,63.0,29.98,SSE,165,4.2,4.5,83,0.00,,,0.09,TxWx,2013-06-10 05:37:00,
2013-06-10 00:42:00,67.1,62.0,29.98,SSE,165,5.7,6.0,85,1.02,,,0.23,TxWx,2013-06-10 05:42:00,
2013-06-10 00:47:00,67.0,63.0,29.98,SSE,165,2.7,3.3,87,1.02,,,0.25,TxWx,2013-06-10 05:47:00,
2013-06-10 00:52:00,67.0,63.0,29.98,SSE,164,2.4,2.4,88,0.54,,,0.26,TxWx,2013-06-10 05:52:00,
2013-06-10 00:58:00,67.0,63.0,29.97,South,176,2.7,2.7,88,0.54,,,0.26,TxWx,2013-06-10 05:58:00,
2013-06-10 01:03:00,67.0,63.0,29.97,SSE,162,1.5,1.5,89,0.00,,,0.26,TxWx,2013-06-10 06:03:00,
2013-06-10 01:08:00,67.0,64.0,29.97,SSE,162,4.8,4.8,89,0.00,,,0.33,TxWx,2013-06-10 06:08:00,
2013-06-10 01:13:00,67.1,64.0,29.97,SSE,164,1.8,2.1,90,0.42,,,0.34,TxWx,2013-06-10 06:13:00,
2013-06-10 01:18:00,67.2,64.0,29.96,SSE,162,1.8,1.8,90,0.42,,,0.36,TxWx,2013-06-10 06:18:00,
2013-06-10 01:24:00,67.2,64.0,29.96,SSE,162,0.3,0.3,90,0.18,,,0.36,TxWx,2013-06-10 06:24:00,
2013-06-10 01:29:00,67.2,64.0,29.95,SSE,163,0.3,0.3,91,0.18,,,0.36,TxWx,2013-06-10 06:29:00,
2013-06-10 01:34:00,67.3,64.0,29.95,SSE,163,0.6,0.6,91,0.00,,,0.36,TxWx,2013-06-10 06:34:00,
2013-06-10 01:39:00,67.4,64.0,29.95,SSE,163,0.9,0.9,91,0.00,,,0.37,TxWx,2013-06-10 06:39:00,
2013-06-10 01:44:00,67.2,64.0,29.94,SSE,162,2.1,2.1,91,0.06,,,0.37,TxWx,2013-06-10 06:44:00,
2013-06-10 01:50:00,67.2,64.0,29.94,SSE,164,1.5,1.5,91,0.06,,,0.37,TxWx,2013-06-10 06:50:00,
2013-06-10 01:55:00,67.1,64.0,29.94,SSE,161,4.2,4.2,91,0.00,,,0.37,TxWx,2013-06-10 06:55:00,
2013-06-10 02:00:00,67.1,64.0,29.93,SSE,164,3.0,3.3,92,0.00,,,0.37,TxWx,2013-06-10 07:00:00,
2013-06-10 02:05:00,67.1,64.0,29.94,SSE,163,0.3,0.3,92,0.00,,,0.37,TxWx,2013-06-10 07:05:00,
2013-06-10 02:10:00,67.1,64.0,29.94,SSE,162,0.9,1.2,92,0.00,,,0.37,TxWx,2013-06-10 07:10:00,
2013-06-10 02:15:00,67.1,65.0,29.94,SSE,162,2.4,2.4,92,0.00,,,0.37,TxWx,2013-06-10 07:15:00,
2013-06-10 02:21:00,67.1,65.0,29.94,SSE,162,2.1,2.4,92,0.00,,,0.37,TxWx,2013-06-10 07:21:00,
2013-06-10 02:26:00,67.3,65.0,29.94,SSE,163,0.3,0.3,92,0.00,,,0.37,TxWx,2013-06-10 07:26:00,
2013-06-10 02:32:00,67.4,65.0,29.94,SSE,162,2.1,2.1,92,0.00,,,0.37,TxWx,2013-06-10 07:32:00,
2013-06-10 02:37:00,67.3,65.0,29.94,SSE,162,1.8,2.1,92,0.00,,,0.37,TxWx,2013-06-10 07:37:00,
2013-06-10 02:42:00,67.3,65.0,29.93,SSE,162,3.0,3.0,92,0.00,,,0.37,TxWx,2013-06-10 07:42:00,
2013-06-10 02:47:00,67.3,65.0,29.93,SSE,163,0.9,1.2,93,0.00,,,0.37,TxWx,2013-06-10 07:47:00,
2013-06-10 02:52:00,67.3,65.0,29.93,South,173,0.6,0.6,93,0.00,,,0.37,TxWx,2013-06-10 07:52:00,
2013-06-10 02:57:00,67.4,65.0,29.93,SSE,163,0.3,0.3,93,0.00,,,0.37,TxWx,2013-06-10 07:57:00,
2013-06-10 03:03:00,67.5,65.0,29.92,SSE,164,0.0,0.3,93,0.00,,,0.37,TxWx,2013-06-10 08:03:00,
2013-06-10 03:08:00,67.4,65.0,29.92,SSE,162,0.9,0.9,93,0.00,,,0.37,TxWx,2013-06-10 08:08:00,
2013-06-10 03:13:00,67.5,65.0,29.92,SSE,164,1.2,1.2,93,0.00,,,0.37,TxWx,2013-06-10 08:13:00,
2013-06-10 03:18:00,67.3,65.0,29.92,SSE,162,2.1,2.4,93,0.00,,,0.37,TxWx,2013-06-10 08:18:00,
2013-06-10 03:23:00,67.4,65.0,29.92,SSE,162,0.6,0.6,93,0.00,,,0.37,TxWx,2013-06-10 08:23:00,
2013-06-10 03:28:00,67.4,65.0,29.92,SSE,164,1.8,2.1,93,0.00,,,0.37,TxWx,2013-06-10 08:28:00,
2013-06-10 03:34:00,67.3,65.0,29.91,SSE,161,1.2,1.5,93,0.00,,,0.37,TxWx,2013-06-10 08:34:00,
2013-06-10 03:39:00,67.4,65.0,29.91,SSE,162,0.9,1.2,93,0.00,,,0.38,TxWx,2013-06-10 08:39:00,
2013-06-10 03:44:00,67.4,65.0,29.91,SSE,162,3.0,3.0,93,0.06,,,0.39,TxWx,2013-06-10 08:44:00,
2013-06-10 03:49:00,67.5,65.0,29.91,SSE,162,0.3,0.3,93,0.06,,,0.40,TxWx,2013-06-10 08:49:00,
2013-06-10 03:54:00,67.5,65.0,29.91,SSE,163,3.0,3.0,93,0.12,,,0.40,TxWx,2013-06-10 08:54:00,
2013-06-10 03:59:00,67.5,66.0,29.91,SSE,164,2.1,2.4,93,0.12,,,0.40,TxWx,2013-06-10 08:59:00,
2013-06-10 04:04:00,67.6,66.0,29.92,SSE,162,0.6,0.9,93,0.00,,,0.40,TxWx,2013-06-10 09:04:00,
2013-06-10 04:09:00,67.6,66.0,29.91,SSE,162,1.5,1.8,93,0.00,,,0.40,TxWx,2013-06-10 09:09:00,
2013-06-10 04:15:00,67.5,65.0,29.91,SSE,162,1.5,1.8,93,0.06,,,0.41,TxWx,2013-06-10 09:15:00,
2013-06-10 04:20:00,67.4,65.0,29.91,SSE,162,0.9,1.2,93,0.00,,,0.41,TxWx,2013-06-10 09:20:00,
2013-06-10 04:25:00,67.3,65.0,29.92,SSE,164,4.8,4.8,93,0.00,,,0.41,TxWx,2013-06-10 09:25:00,
2013-06-10 04:30:00,66.9,65.0,29.92,SSE,163,6.6,6.6,93,0.00,,,0.41,TxWx,2013-06-10 09:30:00,
2013-06-10 04:36:00,66.4,64.0,29.92,SSE,163,4.5,4.8,93,0.00,,,0.42,TxWx,2013-06-10 09:36:00,
2013-06-10 04:41:00,66.2,64.0,29.92,SSE,163,1.8,2.1,93,0.12,,,0.43,TxWx,2013-06-10 09:41:00,
2013-06-10 04:46:00,66.1,64.0,29.92,SSE,163,3.3,3.3,93,0.12,,,0.45,TxWx,2013-06-10 09:46:00,
2013-06-10 04:51:00,65.7,64.0,29.92,SSE,163,4.2,4.2,93,0.12,,,0.45,TxWx,2013-06-10 09:51:00,
2013-06-10 04:57:00,65.6,64.0,29.92,SSE,164,2.1,2.1,93,0.12,,,0.45,TxWx,2013-06-10 09:57:00,
2013-06-10 05:02:00,65.6,64.0,29.92,SSE,164,1.5,1.8,93,0.00,,,0.45,TxWx,2013-06-10 10:02:00,
2013-06-10 05:07:00,65.5,63.0,29.92,SSE,164,2.4,3.0,93,0.00,,,0.45,TxWx,2013-06-10 10:07:00,
2013-06-10 05:12:00,65.6,64.0,29.92,SW,221,1.8,1.8,93,0.00,,,0.45,TxWx,2013-06-10 10:12:00,
2013-06-10 05:17:00,65.4,63.0,29.92,SSE,165,0.9,1.2,93,0.00,,,0.45,TxWx,2013-06-10 10:17:00,
2013-06-10 05:23:00,65.4,63.0,29.92,SSW,200,1.5,1.5,93,0.00,,,0.45,TxWx,2013-06-10 10:23:00,
2013-06-10 05:28:00,65.4,63.0,29.93,WSW,253,1.2,1.2,93,0.00,,,0.45,TxWx,2013-06-10 10:28:00,
2013-06-10 05:33:00,65.4,63.0,29.93,SSE,165,0.0,0.3,93,0.00,,,0.45,TxWx,2013-06-10 10:33:00,
2013-06-10 05:38:00,65.4,63.0,29.93,SSE,164,2.1,2.1,93,0.00,,,0.45,TxWx,2013-06-10 10:38:00,
2013-06-10 05:43:00,65.3,63.0,29.93,SSE,164,1.2,1.2,93,0.00,,,0.45,TxWx,2013-06-10 10:43:00,
2013-06-10 05:48:00,65.5,64.0,29.93,SSE,167,1.5,1.5,93,0.00,,,0.45,TxWx,2013-06-10 10:48:00,
2013-06-10 05:54:00,65.6,64.0,29.92,South,169,2.4,2.7,93,0.00,,,0.45,TxWx,2013-06-10 10:54:00,
2013-06-10 05:59:00,65.6,64.0,29.92,South,169,2.4,2.4,93,0.00,,,0.45,TxWx,2013-06-10 10:59:00,
2013-06-10 06:04:00,65.7,64.0,29.92,SSE,168,2.1,2.4,93,0.00,,,0.45,TxWx,2013-06-10 11:04:00,
2013-06-10 06:09:00,65.5,64.0,29.92,SSE,167,1.2,1.5,93,0.00,,,0.45,TxWx,2013-06-10 11:09:00,
2013-06-10 06:14:00,65.4,63.0,29.92,SSE,167,2.7,3.0,93,0.00,,,0.45,TxWx,2013-06-10 11:14:00,
2013-06-10 06:20:00,65.4,63.0,29.92,SSE,167,3.0,3.3,93,0.00,,,0.45,TxWx,2013-06-10 11:20:00,
2013-06-10 06:25:00,65.4,63.0,29.92,SSE,168,3.0,3.3,93,0.00,,,0.45,TxWx,2013-06-10 11:25:00,
2013-06-10 06:30:00,65.3,63.0,29.92,SSE,168,3.0,3.0,93,0.00,,,0.45,TxWx,2013-06-10 11:30:00,
2013-06-10 06:36:00,65.5,63.0,29.92,SSE,168,3.0,3.0,93,0.00,,,0.45,TxWx,2013-06-10 11:36:00,
2013-06-10 06:41:00,65.4,63.0,29.91,SSE,166,2.7,2.7,93,0.00,,,0.45,TxWx,2013-06-10 11:41:00,
2013-06-10 06:46:00,65.4,63.0,29.92,SSE,167,2.7,3.3,93,0.00,,,0.45,TxWx,2013-06-10 11:46:00,
2013-06-10 06:51:00,65.4,63.0,29.92,SSE,165,3.6,3.9,94,0.00,,,0.45,TxWx,2013-06-10 11:51:00,
2013-06-10 06:57:00,65.5,64.0,29.92,SSE,165,3.6,3.6,94,0.00,,,0.45,TxWx,2013-06-10 11:57:00,
2013-06-10 07:02:00,65.5,64.0,29.91,SSE,164,3.6,4.2,94,0.00,,,0.45,TxWx,2013-06-10 12:02:00,
2013-06-10 07:07:00,65.6,64.0,29.92,SSE,164,3.0,3.3,94,0.00,,,0.45,TxWx,2013-06-10 12:07:00,
2013-06-10 07:12:00,65.6,64.0,29.92,SSE,161,3.3,3.6,94,0.00,,,0.45,TxWx,2013-06-10 12:12:00,
2013-06-10 07:17:00,65.7,64.0,29.92,SSE,162,3.3,3.3,94,0.00,,,0.45,TxWx,2013-06-10 12:17:00,
2013-06-10 07:22:00,65.9,64.0,29.92,SSE,161,2.1,2.1,94,0.00,,,0.45,TxWx,2013-06-10 12:22:00,
2013-06-10 07:27:00,65.8,64.0,29.92,SSE,161,3.0,3.0,93,0.00,,,0.45,TxWx,2013-06-10 12:27:00,
2013-06-10 07:33:00,65.9,64.0,29.92,SSE,162,3.9,4.2,93,0.00,,,0.45,TxWx,2013-06-10 12:33:00,
2013-06-10 07:38:00,66.0,64.0,29.92,SSE,162,2.7,3.0,93,0.00,,,0.45,TxWx,2013-06-10 12:38:00,
2013-06-10 07:43:00,66.2,64.0,29.92,SSE,162,3.9,4.2,93,0.00,,,0.45,TxWx,2013-06-10 12:43:00,
2013-06-10 07:48:00,66.8,65.0,29.92,SSE,161,3.0,3.0,94,0.00,,,0.45,TxWx,2013-06-10 12:48:00,
2013-06-10 07:53:00,67.1,65.0,29.92,SSE,161,3.0,3.0,94,0.00,,,0.45,TxWx,2013-06-10 12:53:00,
2013-06-10 07:59:00,67.3,65.0,29.92,SSE,161,3.0,3.0,93,0.00,,,0.45,TxWx,2013-06-10 12:59:00,
2013-06-10 08:04:00,67.4,65.0,29.92,SSE,161,6.3,6.3,93,0.00,,,0.45,TxWx,2013-06-10 13:04:00,
2013-06-10 08:09:00,67.8,66.0,29.93,SSE,161,2.7,3.3,93,0.00,,,0.45,TxWx,2013-06-10 13:09:00,
2013-06-10 08:14:00,67.7,66.0,29.93,SSE,162,3.3,3.9,92,0.00,,,0.45,TxWx,2013-06-10 13:14:00,
2013-06-10 08:20:00,67.9,66.0,29.93,SSE,162,3.0,3.6,92,0.00,,,0.45,TxWx,2013-06-10 13:20:00,
2013-06-10 08:25:00,68.2,66.0,29.93,SSE,162,3.0,3.3,92,0.00,,,0.45,TxWx,2013-06-10 13:25:00,
2013-06-10 08:30:00,68.4,65.0,29.93,SSE,162,2.1,2.4,92,0.00,,,0.45,TxWx,2013-06-10 13:30:00,
2013-06-10 08:35:00,68.8,66.0,29.93,SSE,162,1.8,1.8,92,0.00,,,0.45,TxWx,2013-06-10 13:35:00,
2013-06-10 08:40:00,68.6,66.0,29.93,SSE,161,4.8,5.4,91,0.00,,,0.45,TxWx,2013-06-10 13:40:00,
2013-06-10 08:45:00,69.0,66.0,29.93,SSE,161,4.5,4.8,90,0.00,,,0.45,TxWx,2013-06-10 13:45:00,
2013-06-10 08:50:00,69.3,66.0,29.93,SSE,161,5.4,6.3,90,0.00,,,0.45,TxWx,2013-06-10 13:50:00,
2013-06-10 08:56:00,68.6,65.0,29.93,SSE,161,2.7,3.0,89,0.00,,,0.45,TxWx,2013-06-10 13:56:00,
2013-06-10 09:01:00,68.2,65.0,29.93,SSE,161,7.2,7.8,90,0.00,,,0.45,TxWx,2013-06-10 14:01:00,
2013-06-10 09:06:00,67.7,65.0,29.94,SSE,161,6.3,6.3,90,0.00,,,0.45,TxWx,2013-06-10 14:06:00,
2013-06-10 09:11:00,67.9,65.0,29.94,SSE,161,4.8,5.4,90,0.00,,,0.45,TxWx,2013-06-10 14:11:00,
2013-06-10 09:17:00,68.0,64.0,29.94,SSE,161,6.0,6.0,89,0.00,,,0.45,TxWx,2013-06-10 14:17:00,
2013-06-10 09:22:00,68.4,64.0,29.94,SSE,162,3.6,4.5,89,0.00,,,0.45,TxWx,2013-06-10 14:22:00,
2013-06-10 09:27:00,69.0,65.0,29.94,SSE,161,5.1,5.1,89,0.00,,,0.45,TxWx,2013-06-10 14:27:00,
2013-06-10 09:32:00,68.9,65.0,29.93,SSE,161,6.3,6.3,87,0.00,,,0.45,TxWx,2013-06-10 14:32:00,
2013-06-10 09:37:00,69.5,65.0,29.93,SSE,161,2.7,3.3,87,0.00,,,0.45,TxWx,2013-06-10 14:37:00,
2013-06-10 09:42:00,69.7,65.0,29.93,SSE,161,5.4,5.4,85,0.00,,,0.45,TxWx,2013-06-10 14:42:00,
2013-06-10 09:48:00,70.7,66.0,29.93,SSE,162,0.9,0.9,84,0.00,,,0.45,TxWx,2013-06-10 14:48:00,
2013-06-10 09:53:00,70.9,65.0,29.92,SSE,162,1.2,1.2,82,0.00,,,0.45,TxWx,2013-06-10 14:53:00,
2013-06-10 09:58:00,71.2,65.0,29.92,SSE,161,6.0,7.2,81,0.00,,,0.45,TxWx,2013-06-10 14:58:00,
2013-06-10 10:03:00,71.3,64.0,29.92,SSE,161,5.4,5.4,79,0.00,,,0.45,TxWx,2013-06-10 15:03:00,
2013-06-10 10:08:00,71.7,65.0,29.92,SSE,161,5.7,6.3,79,0.00,,,0.45,TxWx,2013-06-10 15:08:00,
2013-06-10 10:14:00,72.4,65.0,29.92,SSE,161,6.0,6.0,78,0.00,,,0.45,TxWx,2013-06-10 15:14:00,
2013-06-10 10:19:00,72.3,64.0,29.92,SSE,161,5.7,6.6,76,0.00,,,0.45,TxWx,2013-06-10 15:19:00,
2013-06-10 10:24:00,72.6,65.0,29.93,SSE,161,4.8,4.8,75,0.00,,,0.45,TxWx,2013-06-10 15:24:00,
2013-06-10 10:29:00,72.7,64.0,29.93,SSE,161,3.0,3.6,75,0.00,,,0.45,TxWx,2013-06-10 15:29:00,
2013-06-10 10:34:00,72.5,63.0,29.93,SSE,161,3.6,3.9,75,0.00,,,0.45,TxWx,2013-06-10 15:34:00,
2013-06-10 10:40:00,72.8,65.0,29.93,SSE,161,5.7,6.3,75,0.00,,,0.45,TxWx,2013-06-10 15:40:00,
2013-06-10 10:45:00,73.5,65.0,29.93,SSE,161,4.8,4.8,73,0.00,,,0.45,TxWx,2013-06-10 15:45:00,
2013-06-10 10:50:00,74.0,63.0,29.93,SSE,162,6.0,6.0,70,0.00,,,0.45,TxWx,2013-06-10 15:50:00,
2013-06-10 10:55:00,73.7,64.0,29.93,SSE,162,13.5,13.5,71,0.00,,,0.45,TxWx,2013-06-10 15:55:00,
2013-06-10 11:00:00,74.0,64.0,29.93,SSE,161,7.5,7.5,70,0.00,,,0.45,TxWx,2013-06-10 16:00:00,
2013-06-10 11:05:00,73.3,63.0,29.93,SSE,161,3.6,4.2,71,0.00,,,0.45,TxWx,2013-06-10 16:05:00,
2013-06-10 11:10:00,73.0,63.0,29.94,SSE,161,5.4,6.0,72,0.00,,,0.45,TxWx,2013-06-10 16:10:00,
2013-06-10 11:16:00,73.0,64.0,29.93,SSE,161,5.7,6.0,74,0.00,,,0.45,TxWx,2013-06-10 16:16:00,
2013-06-10 11:21:00,72.8,64.0,29.94,SSE,161,3.3,3.9,74,0.00,,,0.45,TxWx,2013-06-10 16:21:00,
2013-06-10 11:26:00,72.3,63.0,29.94,SSE,162,6.6,6.9,75,0.00,,,0.45,TxWx,2013-06-10 16:26:00,
2013-06-10 11:31:00,72.4,63.0,29.93,SSE,161,3.3,3.3,74,0.00,,,0.45,TxWx,2013-06-10 16:31:00,
2013-06-10 11:36:00,72.7,64.0,29.93,SSE,161,3.0,3.0,75,0.00,,,0.45,TxWx,2013-06-10 16:36:00,
2013-06-10 11:41:00,73.1,64.0,29.93,SSE,162,4.8,4.8,74,0.00,,,0.45,TxWx,2013-06-10 16:41:00,
2013-06-10 11:46:00,73.2,63.0,29.93,SSE,166,6.0,6.6,71,0.00,,,0.45,TxWx,2013-06-10 16:46:00,
2013-06-10 11:51:00,73.4,63.0,29.93,SSE,161,4.8,4.8,72,0.00,,,0.45,TxWx,2013-06-10 16:51:00,
2013-06-10 11:57:00,73.6,64.0,29.93,SSE,162,3.3,3.6,71,0.00,,,0.45,TxWx,2013-06-10 16:57:00,
2013-06-10 12:02:00,73.6,64.0,29.93,SSE,162,3.0,3.9,71,0.00,,,0.45,TxWx,2013-06-10 17:02:00,
2013-06-10 12:07:00,73.6,64.0,29.93,SSE,162,7.2,7.2,71,0.00,,,0.45,TxWx,2013-06-10 17:07:00,
2013-06-10 12:12:00,73.8,64.0,29.93,SSE,161,3.0,3.3,70,0.00,,,0.45,TxWx,2013-06-10 17:12:00,
2013-06-10 12:17:00,74.4,64.0,29.92,SSE,162,5.1,5.4,70,0.00,,,0.45,TxWx,2013-06-10 17:17:00,
2013-06-10 12:22:00,74.7,64.0,29.93,SSE,161,8.4,8.4,68,0.00,,,0.45,TxWx,2013-06-10 17:22:00,
2013-06-10 12:27:00,75.0,63.0,29.93,SSE,161,5.4,6.0,66,0.00,,,0.45,TxWx,2013-06-10 17:27:00,
2013-06-10 12:32:00,76.2,63.0,29.93,SSE,162,6.0,6.6,65,0.00,,,0.45,TxWx,2013-06-10 17:32:00,
2013-06-10 12:38:00,76.1,61.0,29.93,SSE,161,10.2,10.8,60,0.00,,,0.45,TxWx,2013-06-10 17:38:00,
2013-06-10 12:43:00,76.7,63.0,29.93,SSE,162,6.9,6.9,62,0.00,,,0.45,TxWx,2013-06-10 17:43:00,
2013-06-10 12:48:00,76.3,62.0,29.92,SSE,161,6.6,7.8,63,0.00,,,0.45,TxWx,2013-06-10 17:48:00,
2013-06-10 12:53:00,75.5,62.0,29.92,SSE,161,8.1,8.4,63,0.00,,,0.45,TxWx,2013-06-10 17:53:00,
2013-06-10 12:58:00,75.3,63.0,29.92,SSE,162,6.3,7.5,66,0.00,,,0.45,TxWx,2013-06-10 17:58:00,
2013-06-10 13:04:00,75.3,62.0,29.92,SSE,162,7.2,7.2,64,0.00,,,0.45,TxWx,2013-06-10 18:04:00,
2013-06-10 13:09:00,75.5,62.0,29.93,SSE,162,8.4,8.4,64,0.00,,,0.45,TxWx,2013-06-10 18:09:00,
2013-06-10 13:14:00,75.3,62.0,29.92,SSE,162,7.2,7.2,63,0.00,,,0.45,TxWx,2013-06-10 18:14:00,
2013-06-10 13:19:00,76.3,63.0,29.92,SSE,162,5.1,5.1,65,0.00,,,0.45,TxWx,2013-06-10 18:19:00,
2013-06-10 13:24:00,75.9,64.0,29.92,SSE,162,10.5,10.5,68,0.00,,,0.45,TxWx,2013-06-10 18:24:00,
2013-06-10 13:29:00,74.2,65.0,29.93,South,175,9.0,10.2,73,0.00,,,0.45,TxWx,2013-06-10 18:29:00,
2013-06-10 13:34:00,73.5,64.0,29.93,South,179,5.4,5.7,73,0.00,,,0.45,TxWx,2013-06-10 18:34:00,
2013-06-10 13:39:00,73.3,64.0,29.93,South,183,7.8,7.8,75,0.00,,,0.45,TxWx,2013-06-10 18:39:00,
2013-06-10 13:45:00,73.3,65.0,29.93,South,182,9.0,9.0,75,0.00,,,0.45,TxWx,2013-06-10 18:45:00,
2013-06-10 13:50:00,73.8,65.0,29.93,South,181,8.4,8.7,74,0.00,,,0.45,TxWx,2013-06-10 18:50:00,
2013-06-10 13:55:00,74.0,65.0,29.93,South,182,9.3,9.3,74,0.00,,,0.45,TxWx,2013-06-10 18:55:00,
2013-06-10 14:00:00,73.5,64.0,29.93,South,180,6.3,6.9,74,0.00,,,0.45,TxWx,2013-06-10 19:00:00,
2013-06-10 14:05:00,73.9,65.0,29.92,South,182,9.0,9.0,73,0.00,,,0.45,TxWx,2013-06-10 19:05:00,
2013-06-10 14:10:00,74.8,66.0,29.93,South,181,4.8,5.7,75,0.00,,,0.45,TxWx,2013-06-10 19:10:00,
2013-06-10 14:15:00,75.5,65.0,29.93,South,184,12.6,12.6,71,0.00,,,0.45,TxWx,2013-06-10 19:15:00,
2013-06-10 14:20:00,74.8,65.0,29.93,South,180,9.3,10.2,71,0.00,,,0.45,TxWx,2013-06-10 19:20:00,
2013-06-10 14:26:00,74.3,64.0,29.93,South,181,9.3,10.8,71,0.00,,,0.45,TxWx,2013-06-10 19:26:00,
2013-06-10 14:31:00,75.1,66.0,29.93,South,183,6.9,7.5,74,0.00,,,0.45,TxWx,2013-06-10 19:31:00,
2013-06-10 14:36:00,74.1,63.0,29.93,South,187,10.5,11.7,70,0.00,,,0.45,TxWx,2013-06-10 19:36:00,
2013-06-10 14:41:00,74.6,66.0,29.93,South,178,12.9,12.9,73,0.00,,,0.45,TxWx,2013-06-10 19:41:00,
2013-06-10 14:47:00,74.0,65.0,29.94,South,180,11.7,11.7,73,0.00,,,0.45,TxWx,2013-06-10 19:47:00,
2013-06-10 14:52:00,73.5,65.0,29.94,South,183,9.9,10.8,73,0.00,,,0.45,TxWx,2013-06-10 19:52:00,
2013-06-10 14:57:00,73.7,65.0,29.94,South,180,11.1,11.1,73,0.00,,,0.45,TxWx,2013-06-10 19:57:00,
2013-06-10 15:02:00,73.0,64.0,29.94,South,187,8.4,9.0,74,0.00,,,0.45,TxWx,2013-06-10 20:02:00,
2013-06-10 15:07:00,73.1,64.0,29.94,South,181,9.0,9.9,75,0.00,,,0.45,TxWx,2013-06-10 20:07:00,
2013-06-10 15:12:00,72.5,63.0,29.94,South,184,9.3,10.5,74,0.00,,,0.45,TxWx,2013-06-10 20:12:00,
2013-06-10 15:17:00,72.2,63.0,29.95,South,187,8.7,10.5,74,0.00,,,0.45,TxWx,2013-06-10 20:17:00,
2013-06-10 15:23:00,71.5,62.0,29.95,South,189,11.4,12.0,75,0.00,,,0.45,TxWx,2013-06-10 20:23:00,
2013-06-10 15:28:00,71.0,63.0,29.95,South,188,9.0,9.0,77,0.00,,,0.45,TxWx,2013-06-10 20:28:00,
2013-06-10 15:33:00,70.9,63.0,29.95,South,185,10.8,10.8,77,0.00,,,0.45,TxWx,2013-06-10 20:33:00,
2013-06-10 15:38:00,70.2,63.0,29.95,South,186,8.1,8.1,78,0.00,,,0.45,TxWx,2013-06-10 20:38:00,
2013-06-10 15:43:00,70.0,63.0,29.95,South,186,8.7,9.6,79,0.00,,,0.45,TxWx,2013-06-10 20:43:00,
2013-06-10 15:48:00,69.5,63.0,29.95,South,185,6.6,7.8,80,0.00,,,0.45,TxWx,2013-06-10 20:48:00,
2013-06-10 15:53:00,69.4,63.0,29.96,South,185,7.8,7.8,81,0.00,,,0.45,TxWx,2013-06-10 20:53:00,
2013-06-10 15:58:00,69.0,63.0,29.95,South,185,9.9,10.2,81,0.00,,,0.45,TxWx,2013-06-10 20:58:00,
2013-06-10 16:04:00,68.8,63.0,29.96,South,186,6.3,7.2,82,0.00,,,0.45,TxWx,2013-06-10 21:04:00,
2013-06-10 16:09:00,68.8,63.0,29.96,South,183,7.8,7.8,82,0.00,,,0.45,TxWx,2013-06-10 21:09:00,
2013-06-10 16:14:00,68.8,63.0,29.96,South,183,8.1,8.4,81,0.00,,,0.45,TxWx,2013-06-10 21:14:00,
2013-06-10 16:19:00,68.5,63.0,29.95,South,186,8.1,8.4,81,0.00,,,0.45,TxWx,2013-06-10 21:19:00,
2013-06-10 16:25:00,68.9,63.0,29.95,South,186,6.3,6.9,81,0.00,,,0.45,TxWx,2013-06-10 21:25:00,
2013-06-10 16:30:00,69.2,63.0,29.95,South,185,9.0,11.4,81,0.00,,,0.45,TxWx,2013-06-10 21:30:00,
2013-06-10 16:35:00,69.5,63.0,29.95,South,186,7.8,7.8,81,0.00,,,0.45,TxWx,2013-06-10 21:35:00,
2013-06-10 16:40:00,69.9,63.0,29.95,South,187,15.9,15.9,78,0.00,,,0.45,TxWx,2013-06-10 21:40:00,
2013-06-10 16:45:00,69.7,63.0,29.95,South,188,8.7,8.7,78,0.00,,,0.45,TxWx,2013-06-10 21:45:00,
2013-06-10 16:50:00,70.0,63.0,29.95,South,187,6.3,6.3,79,0.00,,,0.45,TxWx,2013-06-10 21:50:00,
2013-06-10 16:55:00,70.4,63.0,29.95,South,184,11.1,11.1,78,0.00,,,0.45,TxWx,2013-06-10 21:55:00,
2013-06-10 17:00:00,70.7,64.0,29.95,South,190,6.0,6.0,78,0.00,,,0.45,TxWx,2013-06-10 22:00:00,
2013-06-10 17:06:00,70.9,64.0,29.95,South,191,10.5,10.5,78,0.00,,,0.45,TxWx,2013-06-10 22:06:00,
2013-06-10 17:11:00,70.6,63.0,29.95,South,184,10.2,10.2,77,0.00,,,0.45,TxWx,2013-06-10 22:11:00,
2013-06-10 17:16:00,71.1,63.0,29.95,South,186,9.0,10.5,77,0.00,,,0.45,TxWx,2013-06-10 22:16:00,
2013-06-10 17:21:00,70.4,62.0,29.96,South,190,11.7,12.0,77,0.00,,,0.45,TxWx,2013-06-10 22:21:00,
2013-06-10 17:26:00,70.3,63.0,29.96,South,188,8.7,8.7,79,0.00,,,0.45,TxWx,2013-06-10 22:26:00,
2013-06-10 17:31:00,70.0,63.0,29.96,South,186,6.3,6.3,78,0.00,,,0.45,TxWx,2013-06-10 22:31:00,
2013-06-10 17:36:00,70.3,63.0,29.96,South,189,8.7,8.7,79,0.00,,,0.45,TxWx,2013-06-10 22:36:00,
2013-06-10 17:42:00,70.0,63.0,29.96,South,191,8.7,9.9,79,0.00,,,0.45,TxWx,2013-06-10 22:42:00,
2013-06-10 17:47:00,70.1,63.0,29.95,South,191,8.7,9.0,78,0.00,,,0.45,TxWx,2013-06-10 22:47:00,
2013-06-10 17:52:00,70.0,63.0,29.96,South,188,6.9,7.5,78,0.00,,,0.45,TxWx,2013-06-10 22:52:00,
2013-06-10 17:57:00,69.7,63.0,29.96,South,187,5.7,6.9,78,0.00,,,0.45,TxWx,2013-06-10 22:57:00,
2013-06-10 18:03:00,69.7,63.0,29.97,South,188,8.1,8.7,78,0.00,,,0.45,TxWx,2013-06-10 23:03:00,
2013-06-10 18:08:00,69.9,63.0,29.97,South,190,7.8,7.8,78,0.00,,,0.45,TxWx,2013-06-10 23:08:00,
2013-06-10 18:13:00,70.0,63.0,29.97,South,184,5.1,5.7,78,0.00,,,0.45,TxWx,2013-06-10 23:13:00,
2013-06-10 18:18:00,70.1,63.0,29.97,South,184,6.6,7.5,78,0.00,,,0.45,TxWx,2013-06-10 23:18:00,
2013-06-10 18:23:00,70.2,63.0,29.97,South,183,7.5,8.1,79,0.00,,,0.45,TxWx,2013-06-10 23:23:00,
2013-06-10 18:28:00,69.7,63.0,29.97,South,183,7.5,8.4,79,0.00,,,0.45,TxWx,2013-06-10 23:28:00,
2013-06-10 18:34:00,69.7,63.0,29.98,South,183,5.7,6.3,80,0.00,,,0.45,TxWx,2013-06-10 23:34:00,
2013-06-10 18:39:00,69.5,63.0,29.98,South,184,6.6,6.6,79,0.00,,,0.45,TxWx,2013-06-10 23:39:00,
2013-06-10 18:44:00,69.3,62.0,29.98,South,184,6.3,6.9,80,0.00,,,0.45,TxWx,2013-06-10 23:44:00,
2013-06-10 18:49:00,69.3,63.0,29.98,South,182,6.6,6.6,81,0.00,,,0.45,TxWx,2013-06-10 23:49:00,
2013-06-10 18:54:00,68.7,63.0,29.98,South,183,9.0,9.6,82,0.00,,,0.45,TxWx,2013-06-10 23:54:00,
2013-06-10 18:59:00,68.0,62.0,29.98,South,183,9.9,9.9,83,0.00,,,0.45,TxWx,2013-06-10 23:59:00,
2013-06-10 19:05:00,67.3,62.0,29.98,South,184,10.5,10.5,84,0.00,,,0.45,TxWx,2013-06-11 00:05:00,
2013-06-10 19:10:00,66.7,63.0,29.98,South,183,6.6,7.5,86,0.00,,,0.45,TxWx,2013-06-11 00:10:00,
2013-06-10 19:15:00,66.0,62.0,29.98,South,184,9.3,9.3,87,0.00,,,0.45,TxWx,2013-06-11 00:15:00,
2013-06-10 19:20:00,65.8,62.0,29.98,South,183,8.7,8.7,88,0.00,,,0.45,TxWx,2013-06-11 00:20:00,
2013-06-10 19:25:00,65.4,62.0,29.98,South,183,5.4,6.6,89,0.00,,,0.45,TxWx,2013-06-11 00:25:00,
2013-06-10 19:31:00,64.9,62.0,29.98,South,182,6.9,6.9,90,0.00,,,0.45,TxWx,2013-06-11 00:31:00,
2013-06-10 19:36:00,64.5,61.0,29.98,South,182,9.0,9.6,91,0.00,,,0.45,TxWx,2013-06-11 00:36:00,
2013-06-10 19:41:00,64.4,61.0,29.99,South,181,7.8,7.8,92,0.00,,,0.45,TxWx,2013-06-11 00:41:00,
2013-06-10 19:47:00,64.4,61.0,29.99,South,180,3.9,4.2,92,0.00,,,0.45,TxWx,2013-06-11 00:47:00,
2013-06-10 19:52:00,63.8,61.0,29.99,South,179,5.4,5.7,92,0.00,,,0.45,TxWx,2013-06-11 00:52:00,
2013-06-10 19:57:00,63.8,62.0,29.99,South,178,3.0,3.0,92,0.00,,,0.45,TxWx,2013-06-11 00:57:00,
2013-06-10 20:02:00,63.2,61.0,29.99,South,175,5.7,5.7,93,0.00,,,0.45,TxWx,2013-06-11 01:02:00,
2013-06-10 20:07:00,63.1,61.0,29.99,South,177,5.4,5.4,93,0.00,,,0.45,TxWx,2013-06-11 01:07:00,
2013-06-10 20:13:00,62.8,61.0,29.99,South,175,4.5,4.5,93,0.00,,,0.45,TxWx,2013-06-11 01:13:00,
2013-06-10 20:18:00,62.9,61.0,29.99,South,176,5.1,6.0,94,0.00,,,0.45,TxWx,2013-06-11 01:18:00,
2013-06-10 20:23:00,62.8,61.0,29.99,South,174,4.2,4.8,94,0.00,,,0.45,TxWx,2013-06-11 01:23:00,
2013-06-10 20:28:00,62.5,60.0,29.99,South,176,3.6,3.9,94,0.00,,,0.45,TxWx,2013-06-11 01:28:00,
2013-06-10 20:34:00,62.3,60.0,29.99,South,175,3.3,3.3,94,0.00,,,0.45,TxWx,2013-06-11 01:34:00,
2013-06-10 20:39:00,62.3,60.0,30.00,South,175,4.2,4.2,94,0.00,,,0.45,TxWx,2013-06-11 01:39:00,
2013-06-10 20:44:00,62.2,60.0,30.00,South,173,3.6,3.6,94,0.00,,,0.45,TxWx,2013-06-11 01:44:00,
2013-06-10 20:49:00,62.2,60.0,30.00,South,172,3.3,3.3,94,0.00,,,0.45,TxWx,2013-06-11 01:49:00,
2013-06-10 20:54:00,62.1,60.0,30.00,South,173,3.9,3.9,94,0.00,,,0.45,TxWx,2013-06-11 01:54:00,
2013-06-10 21:00:00,62.1,60.0,30.00,South,172,3.9,3.9,94,0.00,,,0.45,TxWx,2013-06-11 02:00:00,
2013-06-10 21:05:00,62.3,60.0,30.00,South,170,3.3,3.6,94,0.00,,,0.45,TxWx,2013-06-11 02:05:00,
2013-06-10 21:10:00,62.2,60.0,30.00,SSE,167,2.7,3.0,95,0.00,,,0.45,TxWx,2013-06-11 02:10:00,
2013-06-10 21:15:00,62.0,60.0,30.00,SSE,161,3.3,3.3,95,0.00,,,0.45,TxWx,2013-06-11 02:15:00,
2013-06-10 21:20:00,62.1,60.0,30.00,SSE,162,2.7,3.0,95,0.00,,,0.45,TxWx,2013-06-11 02:20:00,
2013-06-10 21:25:00,62.1,60.0,30.00,SSE,161,1.2,1.8,95,0.00,,,0.45,TxWx,2013-06-11 02:25:00,
2013-06-10 21:31:00,62.1,60.0,30.01,SSE,161,0.9,0.9,95,0.00,,,0.45,TxWx,2013-06-11 02:31:00,
2013-06-10 21:36:00,61.9,60.0,30.01,SSE,161,4.2,4.2,95,0.00,,,0.45,TxWx,2013-06-11 02:36:00,
2013-06-10 21:41:00,61.8,60.0,30.01,SSE,161,3.9,4.2,95,0.00,,,0.45,TxWx,2013-06-11 02:41:00,
2013-06-10 21:46:00,62.0,60.0,30.01,SSE,161,1.2,1.5,95,0.00,,,0.45,TxWx,2013-06-11 02:46:00,
2013-06-10 21:51:00,62.1,61.0,30.01,SSE,161,3.0,3.3,95,0.00,,,0.45,TxWx,2013-06-11 02:51:00,
2013-06-10 21:56:00,61.9,61.0,30.01,SSE,161,2.1,2.4,95,0.00,,,0.45,TxWx,2013-06-11 02:56:00,
2013-06-10 22:02:00,61.8,61.0,30.01,SSE,162,5.4,5.4,95,0.00,,,0.45,TxWx,2013-06-11 03:02:00,
2013-06-10 22:07:00,61.9,61.0,30.01,SSE,162,3.6,3.9,95,0.00,,,0.45,TxWx,2013-06-11 03:07:00,
2013-06-10 22:12:00,62.0,61.0,30.01,SSE,161,3.6,3.6,95,0.00,,,0.45,TxWx,2013-06-11 03:12:00,
2013-06-10 22:17:00,62.0,61.0,30.01,SSE,161,3.0,3.0,95,0.00,,,0.45,TxWx,2013-06-11 03:17:00,
2013-06-10 22:22:00,62.0,61.0,30.01,South,173,2.7,2.7,95,0.00,,,0.45,TxWx,2013-06-11 03:22:00,
2013-06-10 22:27:00,61.9,61.0,30.01,SSE,161,3.6,3.6,95,0.00,,,0.45,TxWx,2013-06-11 03:27:00,
2013-06-10 22:33:00,62.1,61.0,30.01,SSE,161,2.1,2.4,96,0.00,,,0.45,TxWx,2013-06-11 03:33:00,
2013-06-10 22:38:00,62.1,61.0,30.02,SSE,161,1.8,2.1,96,0.00,,,0.45,TxWx,2013-06-11 03:38:00,
2013-06-10 22:43:00,62.2,61.0,30.02,SSE,162,3.9,4.2,96,0.00,,,0.45,TxWx,2013-06-11 03:43:00,
2013-06-10 22:48:00,62.0,61.0,30.02,SSE,162,3.0,3.0,96,0.00,,,0.45,TxWx,2013-06-11 03:48:00,
2013-06-10 22:53:00,62.0,61.0,30.02,South,189,1.2,1.5,96,0.00,,,0.45,TxWx,2013-06-11 03:53:00,
2013-06-10 22:58:00,62.0,61.0,30.02,SSE,163,2.7,2.7,96,0.00,,,0.45,TxWx,2013-06-11 03:58:00,
2013-06-10 23:01:00,61.8,61.0,30.02,SSE,165,1.5,1.5,96,0.00,,,0.45,TxWx,2013-06-11 04:01:00,
2013-06-10 23:02:00,61.9,61.0,30.03,SSE,163,1.2,1.2,96,0.00,,,0.45,TxWx,2013-06-11 04:02:00,
2013-06-10 23:03:00,61.9,61.0,30.03,SSE,162,2.7,2.7,96,0.00,,,0.45,TxWx,2013-06-11 04:03:00,
2013-06-10 23:04:00,61.8,61.0,30.02,SSE,163,3.0,3.0,96,0.00,,,0.45,TxWx,2013-06-11 04:04:00,
2013-06-10 23:09:00,61.8,61.0,30.02,SSE,163,3.6,3.6,96,0.00,,,0.45,TxWx,2013-06-11 04:09:00,
2013-06-10 23:15:00,61.7,61.0,30.02,SSE,163,3.3,3.6,96,0.00,,,0.45,TxWx,2013-06-11 04:15:00,
2013-06-10 23:20:00,61.6,61.0,30.03,SSE,164,1.8,2.1,96,0.00,,,0.45,TxWx,2013-06-11 04:20:00,
2013-06-10 23:25:00,61.6,61.0,30.03,SSE,161,0.3,0.3,96,0.00,,,0.45,TxWx,2013-06-11 04:25:00,
2013-06-10 23:30:00,61.7,61.0,30.03,SSE,161,0.0,0.3,96,0.00,,,0.45,TxWx,2013-06-11 04:30:00,
2013-06-10 23:35:00,61.8,61.0,30.03,SSE,162,0.6,0.6,96,0.00,,,0.45,TxWx,2013-06-11 04:35:00,
2013-06-10 23:40:00,61.8,61.0,30.03,SSE,163,1.5,1.5,96,0.00,,,0.45,TxWx,2013-06-11 04:40:00,
2013-06-10 23:45:00,61.8,61.0,30.03,SSE,164,2.4,2.4,96,0.00,,,0.45,TxWx,2013-06-11 04:45:00,
2013-06-10 23:51:00,61.6,61.0,30.03,SSE,163,2.4,2.4,96,0.00,,,0.45,TxWx,2013-06-11 04:51:00,
2013-06-10 23:56:00,61.3,60.0,30.04,SSE,163,2.7,2.7,96,0.00,,,0.45,TxWx,2013-06-11 04:56:00,